Aviation Digital Data Service (ADDS)

Output produced by METARs form (1906 UTC 25 June 2017)
found at http://www.aviationweather.gov/adds/metars/
 
FVHA 251900Z 12003KT CAVOK 15/09 Q1028 NOSIG
TAF FVHA 251600Z 2518/2624 06008KT CAVOK 
     BECMG 2603/2605 9999 SCT015 
     BECMG 2607/2609 9999 FEW040 
     FM261100 10009KT CAVOK
       
FVWN 251500Z 11007KT CAVOK 19/08 Q1022
FVBU 251700Z 12008KT CAVOK 14/07 Q1026 NOSIG
TAF FVBU 251600Z 2518/2624 12012KT CAVOK
       
FVMV 251500Z 16005KT 9999 BKN040 18/10 Q1025
FVFA 251700Z 11006KT CAVOK 16/07 Q1022 NOSIG
TAF FVFA 251600Z 2518/2624 09005KT CAVOK